sensor_id;sensor_type;location;lat;lon;timestamp;P1;durP1;ratioP1;P2;durP2;ratioP2
35606;SDS011;21729;58.392;15.656;2023-05-07T00:02:22;4.17;;;1.73;;
35606;SDS011;21729;58.392;15.656;2023-05-07T00:04:49;2.00;;;1.80;;
35606;SDS011;21729;58.392;15.656;2023-05-07T00:07:18;2.40;;;1.90;;
35606;SDS011;21729;58.392;15.656;2023-05-07T00:09:45;4.05;;;2.00;;
35606;SDS011;21729;58.392;15.656;2023-05-07T00:12:12;2.13;;;1.73;;
35606;SDS011;21729;58.392;15.656;2023-05-07T00:14:41;2.95;;;2.10;;
35606;SDS011;21729;58.392;15.656;2023-05-07T00:17:08;1.88;;;1.70;;
35606;SDS011;21729;58.392;15.656;2023-05-07T00:19:36;4.93;;;2.00;;
35606;SDS011;21729;58.392;15.656;2023-05-07T00:22:03;2.88;;;1.90;;
35606;SDS011;21729;58.392;15.656;2023-05-07T00:24:31;2.38;;;1.60;;
35606;SDS011;21729;58.392;15.656;2023-05-07T00:26:59;3.40;;;1.90;;
35606;SDS011;21729;58.392;15.656;2023-05-07T00:29:26;2.42;;;1.77;;
35606;SDS011;21729;58.392;15.656;2023-05-07T00:31:53;2.28;;;1.83;;
35606;SDS011;21729;58.392;15.656;2023-05-07T00:34:20;3.20;;;1.90;;
35606;SDS011;21729;58.392;15.656;2023-05-07T00:36:48;4.68;;;1.90;;
35606;SDS011;21729;58.392;15.656;2023-05-07T00:39:15;2.67;;;1.90;;
35606;SDS011;21729;58.392;15.656;2023-05-07T00:41:44;2.47;;;2.10;;
35606;SDS011;21729;58.392;15.656;2023-05-07T00:44:11;2.83;;;2.10;;
35606;SDS011;21729;58.392;15.656;2023-05-07T00:46:38;2.28;;;2.00;;
35606;SDS011;21729;58.392;15.656;2023-05-07T00:49:05;2.40;;;1.90;;
35606;SDS011;21729;58.392;15.656;2023-05-07T00:51:33;4.40;;;2.10;;
35606;SDS011;21729;58.392;15.656;2023-05-07T00:54:00;2.38;;;1.88;;
35606;SDS011;21729;58.392;15.656;2023-05-07T00:56:28;3.10;;;2.20;;
35606;SDS011;21729;58.392;15.656;2023-05-07T00:58:57;3.37;;;2.20;;
35606;SDS011;21729;58.392;15.656;2023-05-07T01:01:24;4.13;;;2.13;;
35606;SDS011;21729;58.392;15.656;2023-05-07T01:03:51;2.53;;;2.22;;
35606;SDS011;21729;58.392;15.656;2023-05-07T01:06:19;4.47;;;2.33;;
35606;SDS011;21729;58.392;15.656;2023-05-07T01:08:47;4.72;;;2.47;;
35606;SDS011;21729;58.392;15.656;2023-05-07T01:11:18;4.18;;;2.25;;
35606;SDS011;21729;58.392;15.656;2023-05-07T01:13:46;2.95;;;2.30;;
35606;SDS011;21729;58.392;15.656;2023-05-07T01:16:16;2.55;;;2.20;;
35606;SDS011;21729;58.392;15.656;2023-05-07T01:18:43;3.45;;;2.35;;
35606;SDS011;21729;58.392;15.656;2023-05-07T01:21:13;4.68;;;2.30;;
35606;SDS011;21729;58.392;15.656;2023-05-07T01:23:44;2.70;;;2.17;;
35606;SDS011;21729;58.392;15.656;2023-05-07T01:26:12;2.75;;;2.00;;
35606;SDS011;21729;58.392;15.656;2023-05-07T01:28:39;3.70;;;2.40;;
35606;SDS011;21729;58.392;15.656;2023-05-07T01:31:06;5.22;;;2.38;;
35606;SDS011;21729;58.392;15.656;2023-05-07T01:33:34;2.63;;;2.38;;
35606;SDS011;21729;58.392;15.656;2023-05-07T01:36:04;3.80;;;2.45;;
35606;SDS011;21729;58.392;15.656;2023-05-07T01:38:34;2.70;;;2.38;;
35606;SDS011;21729;58.392;15.656;2023-05-07T01:41:04;4.50;;;2.57;;
35606;SDS011;21729;58.392;15.656;2023-05-07T01:43:31;3.30;;;2.60;;
35606;SDS011;21729;58.392;15.656;2023-05-07T01:45:59;4.18;;;2.63;;
35606;SDS011;21729;58.392;15.656;2023-05-07T01:48:27;4.93;;;2.67;;
35606;SDS011;21729;58.392;15.656;2023-05-07T01:50:55;3.70;;;2.58;;
35606;SDS011;21729;58.392;15.656;2023-05-07T01:53:22;4.57;;;2.72;;
35606;SDS011;21729;58.392;15.656;2023-05-07T01:55:49;3.78;;;3.00;;
35606;SDS011;21729;58.392;15.656;2023-05-07T01:58:18;3.58;;;2.75;;
35606;SDS011;21729;58.392;15.656;2023-05-07T02:00:45;3.47;;;2.67;;
35606;SDS011;21729;58.392;15.656;2023-05-07T02:03:12;5.47;;;2.80;;
35606;SDS011;21729;58.392;15.656;2023-05-07T02:05:39;4.07;;;2.78;;
35606;SDS011;21729;58.392;15.656;2023-05-07T02:08:06;5.45;;;3.00;;
35606;SDS011;21729;58.392;15.656;2023-05-07T02:10:33;5.13;;;3.00;;
35606;SDS011;21729;58.392;15.656;2023-05-07T02:13:01;3.63;;;2.72;;
35606;SDS011;21729;58.392;15.656;2023-05-07T02:15:29;4.13;;;3.05;;
35606;SDS011;21729;58.392;15.656;2023-05-07T02:18:00;5.03;;;2.70;;
35606;SDS011;21729;58.392;15.656;2023-05-07T02:20:28;5.55;;;2.92;;
35606;SDS011;21729;58.392;15.656;2023-05-07T02:22:55;4.77;;;3.00;;
35606;SDS011;21729;58.392;15.656;2023-05-07T02:25:22;3.95;;;2.90;;
35606;SDS011;21729;58.392;15.656;2023-05-07T02:27:49;5.35;;;2.85;;
35606;SDS011;21729;58.392;15.656;2023-05-07T02:30:17;3.90;;;3.08;;
35606;SDS011;21729;58.392;15.656;2023-05-07T02:32:47;5.63;;;3.10;;
35606;SDS011;21729;58.392;15.656;2023-05-07T02:35:15;4.63;;;3.00;;
35606;SDS011;21729;58.392;15.656;2023-05-07T02:37:42;4.90;;;2.85;;
35606;SDS011;21729;58.392;15.656;2023-05-07T02:40:10;3.97;;;2.60;;
35606;SDS011;21729;58.392;15.656;2023-05-07T02:42:37;5.38;;;3.20;;
35606;SDS011;21729;58.392;15.656;2023-05-07T02:45:05;6.85;;;3.33;;
35606;SDS011;21729;58.392;15.656;2023-05-07T02:47:33;4.30;;;2.97;;
35606;SDS011;21729;58.392;15.656;2023-05-07T02:50:02;4.72;;;3.40;;
35606;SDS011;21729;58.392;15.656;2023-05-07T02:52:29;4.55;;;3.20;;
35606;SDS011;21729;58.392;15.656;2023-05-07T02:54:56;4.65;;;3.05;;
35606;SDS011;21729;58.392;15.656;2023-05-07T02:57:23;5.60;;;3.30;;
35606;SDS011;21729;58.392;15.656;2023-05-07T02:59:51;5.88;;;2.80;;
35606;SDS011;21729;58.392;15.656;2023-05-07T03:02:18;3.78;;;2.83;;
35606;SDS011;21729;58.392;15.656;2023-05-07T03:04:45;4.30;;;2.97;;
35606;SDS011;21729;58.392;15.656;2023-05-07T03:07:13;4.25;;;3.30;;
35606;SDS011;21729;58.392;15.656;2023-05-07T03:09:40;4.05;;;2.90;;
35606;SDS011;21729;58.392;15.656;2023-05-07T03:12:07;3.10;;;2.80;;
35606;SDS011;21729;58.392;15.656;2023-05-07T03:14:35;5.57;;;3.10;;
35606;SDS011;21729;58.392;15.656;2023-05-07T03:17:02;3.77;;;2.90;;
35606;SDS011;21729;58.392;15.656;2023-05-07T03:19:29;5.35;;;3.00;;
35606;SDS011;21729;58.392;15.656;2023-05-07T03:21:56;4.45;;;3.20;;
35606;SDS011;21729;58.392;15.656;2023-05-07T03:24:25;3.92;;;2.90;;
35606;SDS011;21729;58.392;15.656;2023-05-07T03:26:52;4.93;;;3.00;;
35606;SDS011;21729;58.392;15.656;2023-05-07T03:29:19;3.78;;;2.78;;
35606;SDS011;21729;58.392;15.656;2023-05-07T03:31:46;3.40;;;2.70;;
35606;SDS011;21729;58.392;15.656;2023-05-07T03:34:14;4.22;;;2.63;;
35606;SDS011;21729;58.392;15.656;2023-05-07T03:36:42;4.70;;;2.67;;
35606;SDS011;21729;58.392;15.656;2023-05-07T03:39:09;3.08;;;2.75;;
35606;SDS011;21729;58.392;15.656;2023-05-07T03:41:38;4.53;;;3.00;;
35606;SDS011;21729;58.392;15.656;2023-05-07T03:44:05;5.25;;;3.20;;
35606;SDS011;21729;58.392;15.656;2023-05-07T03:46:33;3.60;;;2.90;;
35606;SDS011;21729;58.392;15.656;2023-05-07T03:49:00;3.83;;;3.05;;
35606;SDS011;21729;58.392;15.656;2023-05-07T03:51:27;4.97;;;3.17;;
35606;SDS011;21729;58.392;15.656;2023-05-07T03:53:55;4.18;;;3.08;;
35606;SDS011;21729;58.392;15.656;2023-05-07T03:56:22;4.60;;;3.00;;
35606;SDS011;21729;58.392;15.656;2023-05-07T03:58:53;5.25;;;3.20;;
35606;SDS011;21729;58.392;15.656;2023-05-07T04:01:20;4.43;;;3.15;;
35606;SDS011;21729;58.392;15.656;2023-05-07T04:03:47;4.38;;;2.90;;
35606;SDS011;21729;58.392;15.656;2023-05-07T04:06:15;3.75;;;2.90;;
35606;SDS011;21729;58.392;15.656;2023-05-07T04:08:43;7.20;;;2.92;;
35606;SDS011;21729;58.392;15.656;2023-05-07T04:11:10;4.63;;;3.00;;
35606;SDS011;21729;58.392;15.656;2023-05-07T04:13:37;3.03;;;2.60;;
35606;SDS011;21729;58.392;15.656;2023-05-07T04:16:06;4.40;;;2.80;;
35606;SDS011;21729;58.392;15.656;2023-05-07T04:18:33;3.30;;;2.85;;
35606;SDS011;21729;58.392;15.656;2023-05-07T04:21:00;4.72;;;2.72;;
35606;SDS011;21729;58.392;15.656;2023-05-07T04:23:27;5.07;;;2.83;;
35606;SDS011;21729;58.392;15.656;2023-05-07T04:25:55;4.97;;;2.72;;
35606;SDS011;21729;58.392;15.656;2023-05-07T04:28:22;4.55;;;2.80;;
35606;SDS011;21729;58.392;15.656;2023-05-07T04:30:49;3.58;;;2.60;;
35606;SDS011;21729;58.392;15.656;2023-05-07T04:33:18;3.78;;;2.67;;
35606;SDS011;21729;58.392;15.656;2023-05-07T04:35:45;3.28;;;2.40;;
35606;SDS011;21729;58.392;15.656;2023-05-07T04:38:12;3.13;;;2.60;;
35606;SDS011;21729;58.392;15.656;2023-05-07T04:40:40;3.70;;;2.72;;
35606;SDS011;21729;58.392;15.656;2023-05-07T04:43:07;3.17;;;2.50;;
35606;SDS011;21729;58.392;15.656;2023-05-07T04:45:34;3.50;;;2.13;;
35606;SDS011;21729;58.392;15.656;2023-05-07T04:48:02;3.15;;;2.70;;
35606;SDS011;21729;58.392;15.656;2023-05-07T04:50:31;2.83;;;2.53;;
35606;SDS011;21729;58.392;15.656;2023-05-07T04:52:58;3.83;;;2.63;;
35606;SDS011;21729;58.392;15.656;2023-05-07T04:55:25;4.45;;;2.70;;
35606;SDS011;21729;58.392;15.656;2023-05-07T04:57:52;3.03;;;2.67;;
35606;SDS011;21729;58.392;15.656;2023-05-07T05:00:20;4.05;;;2.55;;
35606;SDS011;21729;58.392;15.656;2023-05-07T05:02:48;3.53;;;2.50;;
35606;SDS011;21729;58.392;15.656;2023-05-07T05:05:15;3.95;;;2.80;;
35606;SDS011;21729;58.392;15.656;2023-05-07T05:07:43;4.30;;;2.45;;
35606;SDS011;21729;58.392;15.656;2023-05-07T05:10:11;3.33;;;2.50;;
35606;SDS011;21729;58.392;15.656;2023-05-07T05:12:38;5.47;;;2.15;;
35606;SDS011;21729;58.392;15.656;2023-05-07T05:15:05;4.00;;;2.50;;
35606;SDS011;21729;58.392;15.656;2023-05-07T05:17:34;3.45;;;2.55;;
35606;SDS011;21729;58.392;15.656;2023-05-07T05:20:01;3.50;;;2.45;;
35606;SDS011;21729;58.392;15.656;2023-05-07T05:22:29;3.20;;;2.30;;
35606;SDS011;21729;58.392;15.656;2023-05-07T05:24:58;2.58;;;2.20;;
35606;SDS011;21729;58.392;15.656;2023-05-07T05:27:25;2.70;;;2.40;;
35606;SDS011;21729;58.392;15.656;2023-05-07T05:29:52;3.57;;;2.53;;
35606;SDS011;21729;58.392;15.656;2023-05-07T05:32:20;2.67;;;2.10;;
35606;SDS011;21729;58.392;15.656;2023-05-07T05:34:47;3.28;;;2.17;;
35606;SDS011;21729;58.392;15.656;2023-05-07T05:37:14;2.35;;;1.77;;
35606;SDS011;21729;58.392;15.656;2023-05-07T05:39:41;2.78;;;1.92;;
35606;SDS011;21729;58.392;15.656;2023-05-07T05:42:10;3.20;;;2.30;;
35606;SDS011;21729;58.392;15.656;2023-05-07T05:44:37;3.67;;;2.00;;
35606;SDS011;21729;58.392;15.656;2023-05-07T05:47:05;2.50;;;1.73;;
35606;SDS011;21729;58.392;15.656;2023-05-07T05:49:32;2.40;;;1.50;;
35606;SDS011;21729;58.392;15.656;2023-05-07T05:51:59;1.80;;;1.60;;
35606;SDS011;21729;58.392;15.656;2023-05-07T05:54:26;3.15;;;1.42;;
35606;SDS011;21729;58.392;15.656;2023-05-07T05:56:53;3.92;;;1.40;;
35606;SDS011;21729;58.392;15.656;2023-05-07T05:59:22;1.50;;;1.00;;
35606;SDS011;21729;58.392;15.656;2023-05-07T06:01:49;1.90;;;1.10;;
35606;SDS011;21729;58.392;15.656;2023-05-07T06:04:19;1.80;;;0.90;;
35606;SDS011;21729;58.392;15.656;2023-05-07T06:06:46;1.02;;;0.93;;
35606;SDS011;21729;58.392;15.656;2023-05-07T06:09:13;1.10;;;0.90;;
35606;SDS011;21729;58.392;15.656;2023-05-07T06:11:41;1.10;;;0.80;;
35606;SDS011;21729;58.392;15.656;2023-05-07T06:14:08;1.00;;;0.90;;
35606;SDS011;21729;58.392;15.656;2023-05-07T06:16:36;2.10;;;0.90;;
35606;SDS011;21729;58.392;15.656;2023-05-07T06:19:04;0.88;;;0.80;;
35606;SDS011;21729;58.392;15.656;2023-05-07T06:21:31;1.38;;;0.90;;
35606;SDS011;21729;58.392;15.656;2023-05-07T06:23:58;1.88;;;0.90;;
35606;SDS011;21729;58.392;15.656;2023-05-07T06:26:25;1.05;;;0.90;;
35606;SDS011;21729;58.392;15.656;2023-05-07T06:28:52;0.80;;;0.80;;
35606;SDS011;21729;58.392;15.656;2023-05-07T06:31:20;2.35;;;1.00;;
35606;SDS011;21729;58.392;15.656;2023-05-07T06:33:49;0.87;;;0.63;;
35606;SDS011;21729;58.392;15.656;2023-05-07T06:36:16;1.05;;;0.93;;
35606;SDS011;21729;58.392;15.656;2023-05-07T06:38:43;1.13;;;0.75;;
35606;SDS011;21729;58.392;15.656;2023-05-07T06:41:10;1.90;;;1.02;;
35606;SDS011;21729;58.392;15.656;2023-05-07T06:43:37;1.30;;;0.90;;
35606;SDS011;21729;58.392;15.656;2023-05-07T06:46:04;1.40;;;0.90;;
35606;SDS011;21729;58.392;15.656;2023-05-07T06:48:32;1.55;;;0.82;;
35606;SDS011;21729;58.392;15.656;2023-05-07T06:51:01;2.93;;;1.00;;
35606;SDS011;21729;58.392;15.656;2023-05-07T06:53:28;2.80;;;0.90;;
35606;SDS011;21729;58.392;15.656;2023-05-07T06:55:55;2.45;;;1.05;;
35606;SDS011;21729;58.392;15.656;2023-05-07T06:58:23;2.13;;;0.83;;
35606;SDS011;21729;58.392;15.656;2023-05-07T07:00:50;1.23;;;0.90;;
35606;SDS011;21729;58.392;15.656;2023-05-07T07:03:17;1.58;;;0.70;;
35606;SDS011;21729;58.392;15.656;2023-05-07T07:05:44;1.70;;;0.80;;
35606;SDS011;21729;58.392;15.656;2023-05-07T07:08:16;1.08;;;0.82;;
35606;SDS011;21729;58.392;15.656;2023-05-07T07:10:43;1.50;;;0.70;;
35606;SDS011;21729;58.392;15.656;2023-05-07T07:13:10;2.30;;;0.70;;
35606;SDS011;21729;58.392;15.656;2023-05-07T07:15:37;1.65;;;0.80;;
35606;SDS011;21729;58.392;15.656;2023-05-07T07:18:05;0.93;;;0.60;;
35606;SDS011;21729;58.392;15.656;2023-05-07T07:20:32;0.93;;;0.90;;
35606;SDS011;21729;58.392;15.656;2023-05-07T07:22:59;1.75;;;1.00;;
35606;SDS011;21729;58.392;15.656;2023-05-07T07:25:27;1.15;;;0.73;;
35606;SDS011;21729;58.392;15.656;2023-05-07T07:27:55;0.75;;;0.70;;
35606;SDS011;21729;58.392;15.656;2023-05-07T07:30:22;1.48;;;0.88;;
35606;SDS011;21729;58.392;15.656;2023-05-07T07:32:55;1.10;;;0.80;;
35606;SDS011;21729;58.392;15.656;2023-05-07T07:35:27;1.90;;;0.80;;
35606;SDS011;21729;58.392;15.656;2023-05-07T07:37:54;1.03;;;0.73;;
35606;SDS011;21729;58.392;15.656;2023-05-07T07:40:21;1.55;;;0.65;;
35606;SDS011;21729;58.392;15.656;2023-05-07T07:42:50;1.75;;;0.90;;
35606;SDS011;21729;58.392;15.656;2023-05-07T07:45:17;1.80;;;0.80;;
35606;SDS011;21729;58.392;15.656;2023-05-07T07:47:44;1.25;;;0.77;;
35606;SDS011;21729;58.392;15.656;2023-05-07T07:50:12;2.00;;;0.80;;
35606;SDS011;21729;58.392;15.656;2023-05-07T07:52:39;2.95;;;0.77;;
35606;SDS011;21729;58.392;15.656;2023-05-07T07:55:06;1.25;;;0.63;;
35606;SDS011;21729;58.392;15.656;2023-05-07T07:57:34;2.10;;;0.90;;
35606;SDS011;21729;58.392;15.656;2023-05-07T08:00:03;2.25;;;0.80;;
35606;SDS011;21729;58.392;15.656;2023-05-07T08:02:32;1.50;;;0.80;;
35606;SDS011;21729;58.392;15.656;2023-05-07T08:04:59;0.80;;;0.60;;
35606;SDS011;21729;58.392;15.656;2023-05-07T08:07:26;1.40;;;0.90;;
35606;SDS011;21729;58.392;15.656;2023-05-07T08:09:53;2.40;;;0.80;;
35606;SDS011;21729;58.392;15.656;2023-05-07T08:12:21;2.28;;;1.00;;
35606;SDS011;21729;58.392;15.656;2023-05-07T08:14:48;2.80;;;0.98;;
35606;SDS011;21729;58.392;15.656;2023-05-07T08:17:16;2.83;;;0.95;;
35606;SDS011;21729;58.392;15.656;2023-05-07T08:19:44;1.25;;;0.77;;
35606;SDS011;21729;58.392;15.656;2023-05-07T08:22:11;1.60;;;0.80;;
35606;SDS011;21729;58.392;15.656;2023-05-07T08:24:38;1.92;;;0.75;;
35606;SDS011;21729;58.392;15.656;2023-05-07T08:27:05;2.10;;;0.80;;
35606;SDS011;21729;58.392;15.656;2023-05-07T08:29:32;3.10;;;0.77;;
35606;SDS011;21729;58.392;15.656;2023-05-07T08:31:59;1.23;;;0.60;;
35606;SDS011;21729;58.392;15.656;2023-05-07T08:34:28;1.40;;;0.90;;
35606;SDS011;21729;58.392;15.656;2023-05-07T08:36:55;2.58;;;0.90;;
35606;SDS011;21729;58.392;15.656;2023-05-07T08:39:22;2.03;;;0.77;;
35606;SDS011;21729;58.392;15.656;2023-05-07T08:41:49;2.28;;;1.02;;
35606;SDS011;21729;58.392;15.656;2023-05-07T08:44:21;2.15;;;0.73;;
35606;SDS011;21729;58.392;15.656;2023-05-07T08:46:52;1.83;;;0.83;;
35606;SDS011;21729;58.392;15.656;2023-05-07T08:49:21;1.70;;;0.80;;
35606;SDS011;21729;58.392;15.656;2023-05-07T08:51:50;0.70;;;0.63;;
35606;SDS011;21729;58.392;15.656;2023-05-07T08:54:17;2.60;;;0.85;;
35606;SDS011;21729;58.392;15.656;2023-05-07T08:56:46;1.98;;;0.70;;
35606;SDS011;21729;58.392;15.656;2023-05-07T08:59:13;0.75;;;0.60;;
35606;SDS011;21729;58.392;15.656;2023-05-07T09:01:41;0.90;;;0.80;;
35606;SDS011;21729;58.392;15.656;2023-05-07T09:04:08;0.60;;;0.60;;
35606;SDS011;21729;58.392;15.656;2023-05-07T09:06:35;1.30;;;0.85;;
35606;SDS011;21729;58.392;15.656;2023-05-07T09:09:04;2.25;;;0.82;;
35606;SDS011;21729;58.392;15.656;2023-05-07T09:11:31;1.52;;;0.93;;
35606;SDS011;21729;58.392;15.656;2023-05-07T09:13:58;2.15;;;0.85;;
35606;SDS011;21729;58.392;15.656;2023-05-07T09:16:27;1.67;;;0.85;;
35606;SDS011;21729;58.392;15.656;2023-05-07T09:18:56;1.70;;;0.68;;
35606;SDS011;21729;58.392;15.656;2023-05-07T09:21:25;1.70;;;0.82;;
35606;SDS011;21729;58.392;15.656;2023-05-07T09:23:53;1.40;;;1.00;;
35606;SDS011;21729;58.392;15.656;2023-05-07T09:26:23;0.80;;;0.70;;
35606;SDS011;21729;58.392;15.656;2023-05-07T09:28:53;0.70;;;0.70;;
35606;SDS011;21729;58.392;15.656;2023-05-07T09:31:20;2.00;;;0.68;;
35606;SDS011;21729;58.392;15.656;2023-05-07T09:33:48;3.60;;;0.80;;
35606;SDS011;21729;58.392;15.656;2023-05-07T09:36:15;1.00;;;0.90;;
35606;SDS011;21729;58.392;15.656;2023-05-07T09:38:43;1.45;;;1.00;;
35606;SDS011;21729;58.392;15.656;2023-05-07T09:41:11;2.80;;;0.90;;
35606;SDS011;21729;58.392;15.656;2023-05-07T09:43:40;0.95;;;0.80;;
35606;SDS011;21729;58.392;15.656;2023-05-07T09:46:08;2.20;;;1.10;;
35606;SDS011;21729;58.392;15.656;2023-05-07T09:48:39;1.83;;;0.80;;
35606;SDS011;21729;58.392;15.656;2023-05-07T09:51:13;2.17;;;1.10;;
35606;SDS011;21729;58.392;15.656;2023-05-07T09:53:47;1.42;;;0.70;;
35606;SDS011;21729;58.392;15.656;2023-05-07T09:56:16;1.40;;;0.90;;
35606;SDS011;21729;58.392;15.656;2023-05-07T09:58:46;1.60;;;0.90;;
35606;SDS011;21729;58.392;15.656;2023-05-07T10:01:15;1.25;;;0.88;;
35606;SDS011;21729;58.392;15.656;2023-05-07T10:03:44;1.05;;;0.70;;
35606;SDS011;21729;58.392;15.656;2023-05-07T10:06:13;1.10;;;0.80;;
35606;SDS011;21729;58.392;15.656;2023-05-07T10:08:41;0.95;;;0.88;;
35606;SDS011;21729;58.392;15.656;2023-05-07T10:11:09;1.98;;;0.90;;
35606;SDS011;21729;58.392;15.656;2023-05-07T10:13:36;1.80;;;0.80;;
35606;SDS011;21729;58.392;15.656;2023-05-07T10:16:05;1.63;;;0.90;;
35606;SDS011;21729;58.392;15.656;2023-05-07T10:18:33;2.95;;;0.80;;
35606;SDS011;21729;58.392;15.656;2023-05-07T10:21:02;2.78;;;0.90;;
35606;SDS011;21729;58.392;15.656;2023-05-07T10:23:33;1.40;;;0.73;;
35606;SDS011;21729;58.392;15.656;2023-05-07T10:26:01;1.73;;;0.82;;
35606;SDS011;21729;58.392;15.656;2023-05-07T10:28:30;1.30;;;0.80;;
35606;SDS011;21729;58.392;15.656;2023-05-07T10:31:14;2.20;;;1.00;;
35606;SDS011;21729;58.392;15.656;2023-05-07T10:33:49;1.67;;;0.90;;
35606;SDS011;21729;58.392;15.656;2023-05-07T10:36:18;1.52;;;0.80;;
35606;SDS011;21729;58.392;15.656;2023-05-07T10:38:47;1.60;;;0.80;;
35606;SDS011;21729;58.392;15.656;2023-05-07T10:41:14;2.53;;;0.70;;
35606;SDS011;21729;58.392;15.656;2023-05-07T10:43:44;0.93;;;0.80;;
35606;SDS011;21729;58.392;15.656;2023-05-07T10:46:15;1.40;;;1.00;;
35606;SDS011;21729;58.392;15.656;2023-05-07T10:51:37;1.00;;;0.77;;
35606;SDS011;21729;58.392;15.656;2023-05-07T10:56:53;1.90;;;0.93;;
35606;SDS011;21729;58.392;15.656;2023-05-07T10:59:36;2.67;;;0.82;;
35606;SDS011;21729;58.392;15.656;2023-05-07T11:02:09;1.30;;;0.90;;
35606;SDS011;21729;58.392;15.656;2023-05-07T11:04:39;2.50;;;0.70;;
35606;SDS011;21729;58.392;15.656;2023-05-07T11:07:26;1.20;;;0.90;;
35606;SDS011;21729;58.392;15.656;2023-05-07T11:09:56;2.00;;;0.70;;
35606;SDS011;21729;58.392;15.656;2023-05-07T11:12:49;2.00;;;0.80;;
35606;SDS011;21729;58.392;15.656;2023-05-07T11:15:37;1.45;;;0.88;;
35606;SDS011;21729;58.392;15.656;2023-05-07T11:18:11;1.98;;;0.82;;
35606;SDS011;21729;58.392;15.656;2023-05-07T11:20:49;1.17;;;0.70;;
35606;SDS011;21729;58.392;15.656;2023-05-07T11:26:23;1.73;;;0.68;;
35606;SDS011;21729;58.392;15.656;2023-05-07T11:28:50;2.53;;;1.00;;
35606;SDS011;21729;58.392;15.656;2023-05-07T11:31:22;1.65;;;0.73;;
35606;SDS011;21729;58.392;15.656;2023-05-07T11:33:53;2.40;;;0.80;;
35606;SDS011;21729;58.392;15.656;2023-05-07T11:36:21;3.70;;;1.00;;
35606;SDS011;21729;58.392;15.656;2023-05-07T11:38:50;1.17;;;1.00;;
35606;SDS011;21729;58.392;15.656;2023-05-07T11:41:17;0.90;;;0.70;;
35606;SDS011;21729;58.392;15.656;2023-05-07T11:43:56;3.40;;;0.98;;
35606;SDS011;21729;58.392;15.656;2023-05-07T11:46:24;0.85;;;0.80;;
35606;SDS011;21729;58.392;15.656;2023-05-07T11:48:54;1.88;;;0.88;;
35606;SDS011;21729;58.392;15.656;2023-05-07T11:51:21;1.30;;;0.80;;
35606;SDS011;21729;58.392;15.656;2023-05-07T11:53:54;1.83;;;0.80;;
35606;SDS011;21729;58.392;15.656;2023-05-07T11:56:21;2.63;;;0.70;;
35606;SDS011;21729;58.392;15.656;2023-05-07T11:58:48;2.08;;;0.80;;
35606;SDS011;21729;58.392;15.656;2023-05-07T12:01:17;2.70;;;0.90;;
35606;SDS011;21729;58.392;15.656;2023-05-07T12:03:44;1.08;;;0.85;;
35606;SDS011;21729;58.392;15.656;2023-05-07T12:06:13;2.67;;;1.00;;
35606;SDS011;21729;58.392;15.656;2023-05-07T12:08:41;1.10;;;0.90;;
35606;SDS011;21729;58.392;15.656;2023-05-07T12:11:09;1.33;;;0.80;;
35606;SDS011;21729;58.392;15.656;2023-05-07T12:13:39;0.70;;;0.70;;
35606;SDS011;21729;58.392;15.656;2023-05-07T12:16:08;2.10;;;0.90;;
35606;SDS011;21729;58.392;15.656;2023-05-07T12:18:35;0.88;;;0.80;;
35606;SDS011;21729;58.392;15.656;2023-05-07T12:21:04;2.70;;;1.02;;
35606;SDS011;21729;58.392;15.656;2023-05-07T12:23:34;2.10;;;0.90;;
35606;SDS011;21729;58.392;15.656;2023-05-07T12:26:03;1.58;;;0.77;;
35606;SDS011;21729;58.392;15.656;2023-05-07T12:28:31;2.70;;;1.00;;
35606;SDS011;21729;58.392;15.656;2023-05-07T12:31:03;2.08;;;0.85;;
35606;SDS011;21729;58.392;15.656;2023-05-07T12:33:31;4.13;;;0.90;;
35606;SDS011;21729;58.392;15.656;2023-05-07T12:36:02;1.70;;;0.80;;
35606;SDS011;21729;58.392;15.656;2023-05-07T12:38:34;1.20;;;0.80;;
35606;SDS011;21729;58.392;15.656;2023-05-07T12:41:04;0.87;;;0.83;;
35606;SDS011;21729;58.392;15.656;2023-05-07T12:43:32;1.02;;;0.90;;
35606;SDS011;21729;58.392;15.656;2023-05-07T12:46:00;2.00;;;0.80;;
35606;SDS011;21729;58.392;15.656;2023-05-07T12:48:28;1.70;;;0.90;;
35606;SDS011;21729;58.392;15.656;2023-05-07T12:50:55;1.40;;;0.80;;
35606;SDS011;21729;58.392;15.656;2023-05-07T12:53:24;1.75;;;0.73;;
35606;SDS011;21729;58.392;15.656;2023-05-07T12:55:54;0.70;;;0.70;;
35606;SDS011;21729;58.392;15.656;2023-05-07T12:58:24;2.33;;;1.00;;
35606;SDS011;21729;58.392;15.656;2023-05-07T13:00:53;1.15;;;0.90;;
35606;SDS011;21729;58.392;15.656;2023-05-07T13:03:24;1.90;;;1.00;;
35606;SDS011;21729;58.392;15.656;2023-05-07T13:05:52;3.00;;;0.85;;
35606;SDS011;21729;58.392;15.656;2023-05-07T13:08:27;1.38;;;0.90;;
35606;SDS011;21729;58.392;15.656;2023-05-07T13:10:58;0.80;;;0.80;;
35606;SDS011;21729;58.392;15.656;2023-05-07T13:13:28;1.57;;;0.73;;
35606;SDS011;21729;58.392;15.656;2023-05-07T13:15:56;1.73;;;0.85;;
35606;SDS011;21729;58.392;15.656;2023-05-07T13:18:24;1.20;;;1.00;;
35606;SDS011;21729;58.392;15.656;2023-05-07T13:20:52;1.60;;;0.80;;
35606;SDS011;21729;58.392;15.656;2023-05-07T13:23:19;2.10;;;1.00;;
35606;SDS011;21729;58.392;15.656;2023-05-07T13:25:47;2.10;;;0.90;;
35606;SDS011;21729;58.392;15.656;2023-05-07T13:28:17;2.05;;;0.90;;
35606;SDS011;21729;58.392;15.656;2023-05-07T13:30:45;1.70;;;0.80;;
35606;SDS011;21729;58.392;15.656;2023-05-07T13:33:12;1.27;;;0.82;;
35606;SDS011;21729;58.392;15.656;2023-05-07T13:35:40;1.55;;;0.75;;
35606;SDS011;21729;58.392;15.656;2023-05-07T13:38:07;1.63;;;0.90;;
35606;SDS011;21729;58.392;15.656;2023-05-07T13:40:35;0.77;;;0.77;;
35606;SDS011;21729;58.392;15.656;2023-05-07T13:43:02;2.72;;;0.90;;
35606;SDS011;21729;58.392;15.656;2023-05-07T13:45:31;1.90;;;0.98;;
35606;SDS011;21729;58.392;15.656;2023-05-07T13:47:58;1.27;;;0.70;;
35606;SDS011;21729;58.392;15.656;2023-05-07T13:50:25;2.40;;;0.85;;
35606;SDS011;21729;58.392;15.656;2023-05-07T13:52:54;0.90;;;0.80;;
35606;SDS011;21729;58.392;15.656;2023-05-07T13:55:23;1.80;;;0.85;;
35606;SDS011;21729;58.392;15.656;2023-05-07T13:57:54;2.10;;;0.82;;
35606;SDS011;21729;58.392;15.656;2023-05-07T14:00:22;1.45;;;0.88;;
35606;SDS011;21729;58.392;15.656;2023-05-07T14:02:51;3.65;;;0.90;;
35606;SDS011;21729;58.392;15.656;2023-05-07T14:05:18;1.60;;;1.00;;
35606;SDS011;21729;58.392;15.656;2023-05-07T14:07:46;1.45;;;0.80;;
35606;SDS011;21729;58.392;15.656;2023-05-07T14:10:14;1.48;;;0.90;;
35606;SDS011;21729;58.392;15.656;2023-05-07T14:12:41;1.77;;;1.00;;
35606;SDS011;21729;58.392;15.656;2023-05-07T14:15:08;1.33;;;0.98;;
35606;SDS011;21729;58.392;15.656;2023-05-07T14:17:36;1.60;;;0.90;;
35606;SDS011;21729;58.392;15.656;2023-05-07T14:20:05;0.98;;;0.77;;
35606;SDS011;21729;58.392;15.656;2023-05-07T14:22:33;1.77;;;0.88;;
35606;SDS011;21729;58.392;15.656;2023-05-07T14:25:00;1.25;;;0.93;;
35606;SDS011;21729;58.392;15.656;2023-05-07T14:27:27;1.80;;;0.95;;
35606;SDS011;21729;58.392;15.656;2023-05-07T14:29:54;3.50;;;0.82;;
35606;SDS011;21729;58.392;15.656;2023-05-07T14:32:22;1.88;;;0.85;;
35606;SDS011;21729;58.392;15.656;2023-05-07T14:34:49;1.50;;;0.80;;
35606;SDS011;21729;58.392;15.656;2023-05-07T14:37:18;0.90;;;0.80;;
35606;SDS011;21729;58.392;15.656;2023-05-07T14:39:45;1.08;;;0.80;;
35606;SDS011;21729;58.392;15.656;2023-05-07T14:42:14;1.50;;;0.90;;
35606;SDS011;21729;58.392;15.656;2023-05-07T14:44:42;2.75;;;0.90;;
35606;SDS011;21729;58.392;15.656;2023-05-07T14:47:10;1.45;;;0.80;;
35606;SDS011;21729;58.392;15.656;2023-05-07T14:49:38;1.20;;;1.10;;